sensor_id;sensor_type;location;lat;lon;timestamp;pressure;altitude;pressure_sealevel;temperature;humidity
27210;BME280;14721;42.668;23.386;2023-03-01T00:00:27;95816.91;;;6.30;100.00
27210;BME280;14721;42.668;23.386;2023-03-01T00:02:52;95812.22;;;6.35;100.00
27210;BME280;14721;42.668;23.386;2023-03-01T00:05:18;95805.00;;;6.20;100.00
27210;BME280;14721;42.668;23.386;2023-03-01T00:07:43;95811.03;;;6.24;100.00
27210;BME280;14721;42.668;23.386;2023-03-01T00:10:10;95815.63;;;6.20;100.00
27210;BME280;14721;42.668;23.386;2023-03-01T00:12:35;95812.66;;;6.26;100.00
27210;BME280;14721;42.668;23.386;2023-03-01T00:15:01;95816.19;;;6.27;100.00
27210;BME280;14721;42.668;23.386;2023-03-01T00:17:27;95813.91;;;6.19;100.00
27210;BME280;14721;42.668;23.386;2023-03-01T00:19:52;95804.56;;;6.12;100.00
27210;BME280;14721;42.668;23.386;2023-03-01T00:22:18;95806.19;;;6.15;100.00
27210;BME280;14721;42.668;23.386;2023-03-01T00:24:43;95798.31;;;6.13;100.00
27210;BME280;14721;42.668;23.386;2023-03-01T00:27:09;95792.59;;;6.04;100.00
27210;BME280;14721;42.668;23.386;2023-03-01T00:29:34;95784.94;;;5.98;100.00
27210;BME280;14721;42.668;23.386;2023-03-01T00:32:00;95791.75;;;6.03;100.00
27210;BME280;14721;42.668;23.386;2023-03-01T00:34:25;95792.44;;;6.07;100.00
27210;BME280;14721;42.668;23.386;2023-03-01T00:36:51;95776.81;;;6.01;100.00
27210;BME280;14721;42.668;23.386;2023-03-01T00:39:16;95783.34;;;6.12;100.00
27210;BME280;14721;42.668;23.386;2023-03-01T00:41:42;95774.34;;;6.15;100.00
27210;BME280;14721;42.668;23.386;2023-03-01T00:44:08;95775.31;;;6.14;100.00
27210;BME280;14721;42.668;23.386;2023-03-01T00:46:34;95768.19;;;6.14;100.00
27210;BME280;14721;42.668;23.386;2023-03-01T00:48:59;95775.31;;;6.14;100.00
27210;BME280;14721;42.668;23.386;2023-03-01T00:51:28;95773.63;;;6.11;100.00
27210;BME280;14721;42.668;23.386;2023-03-01T00:53:55;95779.63;;;5.98;100.00
27210;BME280;14721;42.668;23.386;2023-03-01T00:56:22;95776.34;;;5.93;100.00
27210;BME280;14721;42.668;23.386;2023-03-01T00:58:48;95762.53;;;5.86;100.00
27210;BME280;14721;42.668;23.386;2023-03-01T01:01:18;95765.53;;;5.97;100.00
27210;BME280;14721;42.668;23.386;2023-03-01T01:04:03;95764.81;;;5.94;100.00
27210;BME280;14721;42.668;23.386;2023-03-01T01:06:32;95771.97;;;5.92;100.00
27210;BME280;14721;42.668;23.386;2023-03-01T01:09:00;95778.34;;;6.06;100.00
27210;BME280;14721;42.668;23.386;2023-03-01T01:11:28;95769.66;;;6.03;100.00
27210;BME280;14721;42.668;23.386;2023-03-01T01:13:54;95773.94;;;6.05;100.00
27210;BME280;14721;42.668;23.386;2023-03-01T01:16:21;95777.84;;;5.98;100.00
27210;BME280;14721;42.668;23.386;2023-03-01T01:18:46;95767.72;;;6.06;100.00
27210;BME280;14721;42.668;23.386;2023-03-01T01:21:14;95774.34;;;6.15;100.00
27210;BME280;14721;42.668;23.386;2023-03-01T01:23:41;95776.22;;;6.13;100.00
27210;BME280;14721;42.668;23.386;2023-03-01T01:26:10;95769.56;;;6.04;100.00
27210;BME280;14721;42.668;23.386;2023-03-01T01:28:36;95774.44;;;6.13;100.00
27210;BME280;14721;42.668;23.386;2023-03-01T01:31:02;95769.28;;;6.10;100.00
27210;BME280;14721;42.668;23.386;2023-03-01T01:33:28;95777.09;;;6.13;100.00
27210;BME280;14721;42.668;23.386;2023-03-01T01:35:54;95772.06;;;6.07;100.00
27210;BME280;14721;42.668;23.386;2023-03-01T01:38:19;95781.13;;;6.03;100.00
27210;BME280;14721;42.668;23.386;2023-03-01T01:40:48;95780.97;;;6.06;100.00
27210;BME280;14721;42.668;23.386;2023-03-01T01:43:25;95791.59;;;6.06;100.00
27210;BME280;14721;42.668;23.386;2023-03-01T01:45:55;95789.78;;;6.07;100.00
27210;BME280;14721;42.668;23.386;2023-03-01T01:48:24;95783.00;;;6.01;100.00
27210;BME280;14721;42.668;23.386;2023-03-01T01:51:09;95783.34;;;6.12;100.00
27210;BME280;14721;42.668;23.386;2023-03-01T01:53:37;95778.56;;;6.02;100.00
27210;BME280;14721;42.668;23.386;2023-03-01T01:56:03;95788.06;;;6.06;100.00
27210;BME280;14721;42.668;23.386;2023-03-01T01:58:32;95776.38;;;6.10;100.00
27210;BME280;14721;42.668;23.386;2023-03-01T02:00:57;95772.25;;;6.21;100.00
27210;BME280;14721;42.668;23.386;2023-03-01T02:03:27;95768.03;;;6.17;100.00
27210;BME280;14721;42.668;23.386;2023-03-01T02:06:02;95766.16;;;6.19;100.00
27210;BME280;14721;42.668;23.386;2023-03-01T02:08:31;95770.69;;;6.17;100.00
27210;BME280;14721;42.668;23.386;2023-03-01T02:10:58;95755.84;;;6.13;100.00
27210;BME280;14721;42.668;23.386;2023-03-01T02:13:25;95762.78;;;6.16;100.00
27210;BME280;14721;42.668;23.386;2023-03-01T02:15:51;95756.00;;;6.10;100.00
27210;BME280;14721;42.668;23.386;2023-03-01T02:18:18;95758.13;;;6.21;100.00
27210;BME280;14721;42.668;23.386;2023-03-01T02:21:05;95762.25;;;6.26;99.54
27210;BME280;14721;42.668;23.386;2023-03-01T02:23:33;95756.34;;;6.21;99.63
27210;BME280;14721;42.668;23.386;2023-03-01T02:28:51;95759.69;;;6.08;100.00
27210;BME280;14721;42.668;23.386;2023-03-01T02:31:19;95754.38;;;6.08;100.00
27210;BME280;14721;42.668;23.386;2023-03-01T02:34:05;95758.50;;;6.13;100.00
27210;BME280;14721;42.668;23.386;2023-03-01T02:36:44;95770.75;;;6.16;100.00
27210;BME280;14721;42.668;23.386;2023-03-01T02:39:18;95769.75;;;6.18;100.00
27210;BME280;14721;42.668;23.386;2023-03-01T02:41:49;95776.78;;;6.19;100.00
27210;BME280;14721;42.668;23.386;2023-03-01T02:44:15;95765.06;;;6.06;100.00
27210;BME280;14721;42.668;23.386;2023-03-01T02:46:50;95768.88;;;6.01;100.00
27210;BME280;14721;42.668;23.386;2023-03-01T02:49:28;95764.50;;;6.00;100.00
27210;BME280;14721;42.668;23.386;2023-03-01T02:57:35;95766.50;;;5.95;100.00
27210;BME280;14721;42.668;23.386;2023-03-01T03:00:17;95772.19;;;5.87;100.00
27210;BME280;14721;42.668;23.386;2023-03-01T03:02:48;95756.34;;;5.86;100.00
27210;BME280;14721;42.668;23.386;2023-03-01T03:05:21;95766.97;;;5.86;100.00
27210;BME280;14721;42.668;23.386;2023-03-01T03:07:48;95758.84;;;5.89;100.00
27210;BME280;14721;42.668;23.386;2023-03-01T03:12:52;95764.31;;;5.86;100.00
27210;BME280;14721;42.668;23.386;2023-03-01T03:15:19;95771.56;;;5.82;100.00
27210;BME280;14721;42.668;23.386;2023-03-01T03:17:46;95768.69;;;5.87;100.00
27210;BME280;14721;42.668;23.386;2023-03-01T03:20:14;95753.13;;;5.79;100.00
27210;BME280;14721;42.668;23.386;2023-03-01T03:22:45;95770.72;;;5.82;100.00
27210;BME280;14721;42.668;23.386;2023-03-01T03:25:11;95764.81;;;5.75;100.00
27210;BME280;14721;42.668;23.386;2023-03-01T03:27:39;95778.28;;;5.70;100.00
27210;BME280;14721;42.668;23.386;2023-03-01T03:30:06;95768.75;;;5.66;100.00
27210;BME280;14721;42.668;23.386;2023-03-01T03:32:36;95775.78;;;5.67;100.00
27210;BME280;14721;42.668;23.386;2023-03-01T03:35:03;95783.72;;;5.67;100.00
27210;BME280;14721;42.668;23.386;2023-03-01T03:37:39;95773.84;;;5.71;100.00
27210;BME280;14721;42.668;23.386;2023-03-01T03:40:25;95778.22;;;5.72;100.00
27210;BME280;14721;42.668;23.386;2023-03-01T03:42:51;95766.69;;;5.73;100.00
27210;BME280;14721;42.668;23.386;2023-03-01T03:45:18;95774.16;;;5.65;100.00
27210;BME280;14721;42.668;23.386;2023-03-01T03:47:44;95780.16;;;5.68;100.00
27210;BME280;14721;42.668;23.386;2023-03-01T03:50:12;95781.88;;;5.69;100.00
27210;BME280;14721;42.668;23.386;2023-03-01T03:52:40;95784.75;;;5.65;100.00
27210;BME280;14721;42.668;23.386;2023-03-01T03:55:06;95780.53;;;5.61;100.00
27210;BME280;14721;42.668;23.386;2023-03-01T03:57:42;95772.06;;;5.53;100.00
27210;BME280;14721;42.668;23.386;2023-03-01T04:00:10;95777.81;;;5.62;100.00
27210;BME280;14721;42.668;23.386;2023-03-01T04:02:40;95778.84;;;5.77;100.00
27210;BME280;14721;42.668;23.386;2023-03-01T04:05:08;95784.88;;;5.80;100.00
27210;BME280;14721;42.668;23.386;2023-03-01T04:07:38;95794.50;;;5.83;100.00
27210;BME280;14721;42.668;23.386;2023-03-01T04:10:06;95783.22;;;5.78;100.00
27210;BME280;14721;42.668;23.386;2023-03-01T04:12:33;95781.44;;;5.78;100.00
27210;BME280;14721;42.668;23.386;2023-03-01T04:15:00;95788.59;;;5.76;100.00
27210;BME280;14721;42.668;23.386;2023-03-01T04:17:26;95783.06;;;5.81;100.00
27210;BME280;14721;42.668;23.386;2023-03-01T04:19:52;95787.03;;;5.72;100.00
27210;BME280;14721;42.668;23.386;2023-03-01T04:22:18;95789.59;;;5.74;100.00
27210;BME280;14721;42.668;23.386;2023-03-01T04:24:44;95778.44;;;5.67;100.00
27210;BME280;14721;42.668;23.386;2023-03-01T04:27:11;95780.84;;;5.72;100.00
27210;BME280;14721;42.668;23.386;2023-03-01T04:29:37;95788.88;;;5.70;100.00
27210;BME280;14721;42.668;23.386;2023-03-01T04:32:03;95770.06;;;5.58;100.00
27210;BME280;14721;42.668;23.386;2023-03-01T04:34:29;95786.88;;;5.57;100.00
27210;BME280;14721;42.668;23.386;2023-03-01T04:36:55;95781.44;;;5.60;100.00
27210;BME280;14721;42.668;23.386;2023-03-01T04:39:21;95785.97;;;5.58;100.00
27210;BME280;14721;42.668;23.386;2023-03-01T04:41:47;95780.69;;;5.58;100.00
27210;BME280;14721;42.668;23.386;2023-03-01T04:44:12;95777.31;;;5.54;100.00
27210;BME280;14721;42.668;23.386;2023-03-01T04:46:38;95770.84;;;5.60;100.00
27210;BME280;14721;42.668;23.386;2023-03-01T04:49:04;95775.53;;;5.55;100.00
27210;BME280;14721;42.668;23.386;2023-03-01T04:51:30;95780.81;;;5.55;100.00
27210;BME280;14721;42.668;23.386;2023-03-01T04:53:58;95777.44;;;5.51;100.00
27210;BME280;14721;42.668;23.386;2023-03-01T04:56:25;95762.56;;;5.49;100.00
27210;BME280;14721;42.668;23.386;2023-03-01T04:58:53;95773.94;;;5.51;100.00
27210;BME280;14721;42.668;23.386;2023-03-01T05:01:20;95782.59;;;5.54;100.00
27210;BME280;14721;42.668;23.386;2023-03-01T05:03:48;95782.03;;;5.48;100.00
27210;BME280;14721;42.668;23.386;2023-03-01T05:06:14;95782.09;;;5.46;100.00
27210;BME280;14721;42.668;23.386;2023-03-01T05:08:41;95782.47;;;5.57;100.00
27210;BME280;14721;42.668;23.386;2023-03-01T05:11:07;95770.28;;;5.53;100.00
27210;BME280;14721;42.668;23.386;2023-03-01T05:13:35;95778.47;;;5.49;100.00
27210;BME280;14721;42.668;23.386;2023-03-01T05:16:03;95779.88;;;5.56;100.00
27210;BME280;14721;42.668;23.386;2023-03-01T05:18:31;95791.00;;;5.45;100.00
27210;BME280;14721;42.668;23.386;2023-03-01T05:21:13;95789.22;;;5.46;100.00
27210;BME280;14721;42.668;23.386;2023-03-01T05:23:41;95787.31;;;5.48;100.00
27210;BME280;14721;42.668;23.386;2023-03-01T05:26:07;95781.66;;;5.55;100.00
27210;BME280;14721;42.668;23.386;2023-03-01T05:28:36;95782.25;;;5.62;100.00
27210;BME280;14721;42.668;23.386;2023-03-01T05:31:04;95779.00;;;5.55;100.00
27210;BME280;14721;42.668;23.386;2023-03-01T05:33:52;95789.06;;;5.49;100.00
27210;BME280;14721;42.668;23.386;2023-03-01T05:36:19;95781.88;;;5.51;100.00
27210;BME280;14721;42.668;23.386;2023-03-01T05:38:50;95784.81;;;5.45;100.00
27210;BME280;14721;42.668;23.386;2023-03-01T05:41:21;95785.84;;;5.42;100.00
27210;BME280;14721;42.668;23.386;2023-03-01T05:43:49;95793.72;;;5.44;100.00
27210;BME280;14721;42.668;23.386;2023-03-01T05:46:17;95790.25;;;5.42;100.00
27210;BME280;14721;42.668;23.386;2023-03-01T05:48:46;95789.44;;;5.41;100.00
27210;BME280;14721;42.668;23.386;2023-03-01T05:51:13;95794.88;;;5.38;100.00
27210;BME280;14721;42.668;23.386;2023-03-01T05:53:39;95794.94;;;5.37;100.00
27210;BME280;14721;42.668;23.386;2023-03-01T05:56:05;95800.38;;;5.34;100.00
27210;BME280;14721;42.668;23.386;2023-03-01T05:58:31;95804.53;;;5.39;100.00
27210;BME280;14721;42.668;23.386;2023-03-01T06:00:57;95800.66;;;5.46;100.00
27210;BME280;14721;42.668;23.386;2023-03-01T06:03:23;95814.56;;;5.51;100.00
27210;BME280;14721;42.668;23.386;2023-03-01T06:05:57;95809.31;;;5.50;100.00
27210;BME280;14721;42.668;23.386;2023-03-01T06:08:25;95821.56;;;5.52;100.00
27210;BME280;14721;42.668;23.386;2023-03-01T06:10:52;95821.50;;;5.54;100.00
27210;BME280;14721;42.668;23.386;2023-03-01T06:13:25;95828.09;;;5.45;100.00
27210;BME280;14721;42.668;23.386;2023-03-01T06:15:51;95825.22;;;5.50;100.00
27210;BME280;14721;42.668;23.386;2023-03-01T06:18:21;95822.72;;;5.47;100.00
27210;BME280;14721;42.668;23.386;2023-03-01T06:20:53;95834.19;;;5.47;100.00
27210;BME280;14721;42.668;23.386;2023-03-01T06:23:19;95830.75;;;5.45;100.00
27210;BME280;14721;42.668;23.386;2023-03-01T06:25:45;95832.16;;;5.52;100.00
27210;BME280;14721;42.668;23.386;2023-03-01T06:28:10;95835.03;;;5.48;100.00
27210;BME280;14721;42.668;23.386;2023-03-01T06:30:39;95828.09;;;5.45;100.00
27210;BME280;14721;42.668;23.386;2023-03-01T06:33:11;95830.47;;;5.51;100.00
27210;BME280;14721;42.668;23.386;2023-03-01T06:35:37;95829.16;;;5.60;100.00
27210;BME280;14721;42.668;23.386;2023-03-01T06:38:06;95825.38;;;5.65;100.00
27210;BME280;14721;42.668;23.386;2023-03-01T06:40:38;95833.25;;;5.67;100.00
27210;BME280;14721;42.668;23.386;2023-03-01T06:43:10;95834.81;;;5.71;100.00
27210;BME280;14721;42.668;23.386;2023-03-01T06:45:37;95826.19;;;5.86;100.00
27210;BME280;14721;42.668;23.386;2023-03-01T06:48:05;95841.69;;;5.75;100.00
27210;BME280;14721;42.668;23.386;2023-03-01T06:50:33;95829.16;;;5.78;100.00
27210;BME280;14721;42.668;23.386;2023-03-01T06:53:03;95819.16;;;5.85;100.00
27210;BME280;14721;42.668;23.386;2023-03-01T06:55:35;95829.47;;;5.91;100.00
27210;BME280;14721;42.668;23.386;2023-03-01T06:58:03;95823.66;;;5.83;100.00
27210;BME280;14721;42.668;23.386;2023-03-01T07:00:29;95831.47;;;5.86;100.00
27210;BME280;14721;42.668;23.386;2023-03-01T07:02:58;95831.69;;;5.82;100.00
27210;BME280;14721;42.668;23.386;2023-03-01T07:05:25;95822.91;;;5.79;100.00
27210;BME280;14721;42.668;23.386;2023-03-01T07:07:50;95836.91;;;6.02;100.00
27210;BME280;14721;42.668;23.386;2023-03-01T07:10:16;95832.06;;;5.93;100.00
27210;BME280;14721;42.668;23.386;2023-03-01T07:12:45;95832.97;;;5.92;100.00
27210;BME280;14721;42.668;23.386;2023-03-01T07:15:12;95833.75;;;5.94;100.00
27210;BME280;14721;42.668;23.386;2023-03-01T07:17:37;95831.59;;;6.02;100.00
27210;BME280;14721;42.668;23.386;2023-03-01T07:20:04;95832.66;;;5.98;100.00
27210;BME280;14721;42.668;23.386;2023-03-01T07:22:30;95827.00;;;6.05;100.00
27210;BME280;14721;42.668;23.386;2023-03-01T07:25:05;95834.13;;;6.22;100.00
27210;BME280;14721;42.668;23.386;2023-03-01T07:27:37;95826.41;;;6.17;100.00
27210;BME280;14721;42.668;23.386;2023-03-01T07:30:12;95813.28;;;6.14;100.00
27210;BME280;14721;42.668;23.386;2023-03-01T07:32:38;95819.16;;;6.21;99.44
27210;BME280;14721;42.668;23.386;2023-03-01T07:35:04;95819.06;;;6.22;98.88
27210;BME280;14721;42.668;23.386;2023-03-01T07:37:29;95815.78;;;6.17;98.46
27210;BME280;14721;42.668;23.386;2023-03-01T07:39:55;95809.34;;;6.23;98.40
27210;BME280;14721;42.668;23.386;2023-03-01T07:42:20;95819.56;;;6.30;97.92
27210;BME280;14721;42.668;23.386;2023-03-01T07:44:46;95804.31;;;6.34;96.96
27210;BME280;14721;42.668;23.386;2023-03-01T07:47:11;95810.44;;;6.36;96.76
27210;BME280;14721;42.668;23.386;2023-03-01T07:49:37;95804.25;;;6.35;95.68
27210;BME280;14721;42.668;23.386;2023-03-01T07:52:03;95810.34;;;6.37;95.87
27210;BME280;14721;42.668;23.386;2023-03-01T07:54:28;95806.59;;;6.41;96.13
27210;BME280;14721;42.668;23.386;2023-03-01T07:56:54;95808.94;;;6.47;95.17
27210;BME280;14721;42.668;23.386;2023-03-01T07:59:21;95791.31;;;6.46;95.14
27210;BME280;14721;42.668;23.386;2023-03-01T08:01:48;95793.63;;;6.86;94.46
27210;BME280;14721;42.668;23.386;2023-03-01T08:04:14;95792.97;;;6.98;93.82
27210;BME280;14721;42.668;23.386;2023-03-01T08:06:39;95789.34;;;7.16;92.99
27210;BME280;14721;42.668;23.386;2023-03-01T08:09:05;95792.44;;;7.24;91.93
27210;BME280;14721;42.668;23.386;2023-03-01T08:11:31;95797.50;;;7.29;91.55
27210;BME280;14721;42.668;23.386;2023-03-01T08:13:56;95787.13;;;7.24;91.70
27210;BME280;14721;42.668;23.386;2023-03-01T08:16:22;95793.22;;;7.26;91.56
27210;BME280;14721;42.668;23.386;2023-03-01T08:18:48;95783.88;;;7.35;91.54
27210;BME280;14721;42.668;23.386;2023-03-01T08:21:15;95781.34;;;7.49;90.88
27210;BME280;14721;42.668;23.386;2023-03-01T08:23:42;95791.38;;;7.44;90.20
27210;BME280;14721;42.668;23.386;2023-03-01T08:26:11;95786.75;;;7.63;89.74
27210;BME280;14721;42.668;23.386;2023-03-01T08:28:38;95793.34;;;7.71;89.81
27210;BME280;14721;42.668;23.386;2023-03-01T08:33:41;95785.03;;;7.62;88.40
27210;BME280;14721;42.668;23.386;2023-03-01T08:36:06;95788.66;;;7.61;87.85
27210;BME280;14721;42.668;23.386;2023-03-01T08:38:33;95776.03;;;7.49;86.45
27210;BME280;14721;42.668;23.386;2023-03-01T08:41:00;95786.47;;;7.36;86.45
27210;BME280;14721;42.668;23.386;2023-03-01T08:43:26;95795.75;;;7.60;84.97
27210;BME280;14721;42.668;23.386;2023-03-01T08:45:51;95794.06;;;7.59;84.56
27210;BME280;14721;42.668;23.386;2023-03-01T08:48:17;95794.56;;;7.50;84.49
27210;BME280;14721;42.668;23.386;2023-03-01T08:50:42;95804.41;;;7.48;84.75
27210;BME280;14721;42.668;23.386;2023-03-01T08:53:08;95799.19;;;7.47;84.76
27210;BME280;14721;42.668;23.386;2023-03-01T08:55:33;95799.09;;;7.48;85.29
27210;BME280;14721;42.668;23.386;2023-03-01T08:57:58;95807.94;;;7.49;85.16
27210;BME280;14721;42.668;23.386;2023-03-01T09:00:24;95799.88;;;7.50;84.71
27210;BME280;14721;42.668;23.386;2023-03-01T09:02:50;95800.72;;;7.51;84.46
27210;BME280;14721;42.668;23.386;2023-03-01T09:05:15;95792.75;;;7.51;84.17
27210;BME280;14721;42.668;23.386;2023-03-01T09:07:41;95790.53;;;7.59;83.55
27210;BME280;14721;42.668;23.386;2023-03-01T09:10:08;95794.31;;;7.55;84.85
27210;BME280;14721;42.668;23.386;2023-03-01T09:12:34;95782.22;;;7.65;84.65
27210;BME280;14721;42.668;23.386;2023-03-01T09:14:59;95787.28;;;7.69;84.68
27210;BME280;14721;42.668;23.386;2023-03-01T09:17:25;95799.03;;;7.81;84.13
27210;BME280;14721;42.668;23.386;2023-03-01T09:19:50;95789.59;;;7.76;83.81
27210;BME280;14721;42.668;23.386;2023-03-01T09:22:16;95790.00;;;7.68;84.49
27210;BME280;14721;42.668;23.386;2023-03-01T09:24:41;95781.53;;;7.77;84.33
27210;BME280;14721;42.668;23.386;2023-03-01T09:27:07;95779.53;;;7.81;83.97
27210;BME280;14721;42.668;23.386;2023-03-01T09:29:35;95787.16;;;8.02;83.43
27210;BME280;14721;42.668;23.386;2023-03-01T09:32:01;95792.06;;;7.79;83.12
27210;BME280;14721;42.668;23.386;2023-03-01T09:34:26;95781.00;;;7.70;83.90
27210;BME280;14721;42.668;23.386;2023-03-01T09:36:52;95787.75;;;7.76;84.00
27210;BME280;14721;42.668;23.386;2023-03-01T09:39:18;95788.53;;;7.78;84.03
27210;BME280;14721;42.668;23.386;2023-03-01T09:42:00;95785.56;;;7.68;84.63
27210;BME280;14721;42.668;23.386;2023-03-01T09:46:56;95771.03;;;7.58;85.24
27210;BME280;14721;42.668;23.386;2023-03-01T09:49:26;95774.38;;;7.78;85.24
27210;BME280;14721;42.668;23.386;2023-03-01T09:54:40;95762.91;;;7.77;84.22
27210;BME280;14721;42.668;23.386;2023-03-01T09:59:59;95756.47;;;7.65;84.69
27210;BME280;14721;42.668;23.386;2023-03-01T10:07:54;95752.75;;;7.52;85.78
27210;BME280;14721;42.668;23.386;2023-03-01T10:10:33;95758.00;;;7.54;85.73
27210;BME280;14721;42.668;23.386;2023-03-01T10:13:06;95735.44;;;7.77;85.86
27210;BME280;14721;42.668;23.386;2023-03-01T10:15:41;95755.41;;;7.84;84.58
27210;BME280;14721;42.668;23.386;2023-03-01T10:18:16;95758.16;;;7.98;84.70
27210;BME280;14721;42.668;23.386;2023-03-01T10:20:46;95753.19;;;8.07;83.96
27210;BME280;14721;42.668;23.386;2023-03-01T10:23:15;95751.25;;;8.09;83.33
27210;BME280;14721;42.668;23.386;2023-03-01T10:25:54;95740.53;;;8.11;83.73
27210;BME280;14721;42.668;23.386;2023-03-01T10:30:53;95724.53;;;7.81;83.00
27210;BME280;14721;42.668;23.386;2023-03-01T10:33:24;95731.91;;;7.92;83.37
27210;BME280;14721;42.668;23.386;2023-03-01T10:35:51;95734.47;;;7.93;82.91
27210;BME280;14721;42.668;23.386;2023-03-01T10:38:19;95727.81;;;7.86;82.69
27210;BME280;14721;42.668;23.386;2023-03-01T10:43:17;95726.06;;;8.01;82.90
27210;BME280;14721;42.668;23.386;2023-03-01T10:45:42;95724.25;;;8.01;82.29
27210;BME280;14721;42.668;23.386;2023-03-01T10:50:34;95710.47;;;8.24;81.65
27210;BME280;14721;42.668;23.386;2023-03-01T10:53:04;95715.34;;;8.32;81.03
27210;BME280;14721;42.668;23.386;2023-03-01T10:55:37;95719.28;;;8.40;81.70
27210;BME280;14721;42.668;23.386;2023-03-01T10:58:16;95708.09;;;8.63;81.03
27210;BME280;14721;42.668;23.386;2023-03-01T11:03:15;95717.59;;;8.53;80.43
27210;BME280;14721;42.668;23.386;2023-03-01T11:08:39;95717.28;;;8.44;80.51
27210;BME280;14721;42.668;23.386;2023-03-01T11:11:29;95712.41;;;8.66;79.91
27210;BME280;14721;42.668;23.386;2023-03-01T11:14:16;95715.25;;;8.77;78.53
27210;BME280;14721;42.668;23.386;2023-03-01T11:16:44;95717.25;;;8.73;77.69
27210;BME280;14721;42.668;23.386;2023-03-01T11:24:06;95701.41;;;8.42;79.71
27210;BME280;14721;42.668;23.386;2023-03-01T11:26:37;95706.53;;;8.45;80.31
27210;BME280;14721;42.668;23.386;2023-03-01T11:29:07;95721.13;;;8.54;79.88
27210;BME280;14721;42.668;23.386;2023-03-01T11:31:39;95709.75;;;8.36;80.47
27210;BME280;14721;42.668;23.386;2023-03-01T11:34:09;95717.75;;;8.36;80.94
27210;BME280;14721;42.668;23.386;2023-03-01T11:36:55;95724.72;;;8.39;81.02
27210;BME280;14721;42.668;23.386;2023-03-01T11:39:36;95699.81;;;8.24;81.81
27210;BME280;14721;42.668;23.386;2023-03-01T11:42:11;95702.06;;;8.46;81.15
27210;BME280;14721;42.668;23.386;2023-03-01T11:44:40;95707.78;;;8.40;81.77
27210;BME280;14721;42.668;23.386;2023-03-01T11:47:30;95701.22;;;8.45;81.78
27210;BME280;14721;42.668;23.386;2023-03-01T11:52:48;95682.84;;;8.41;82.26
27210;BME280;14721;42.668;23.386;2023-03-01T12:08:44;95680.91;;;8.72;80.82
27210;BME280;14721;42.668;23.386;2023-03-01T12:11:40;95667.59;;;8.86;80.30
27210;BME280;14721;42.668;23.386;2023-03-01T12:44:35;95646.63;;;9.08;79.17
27210;BME280;14721;42.668;23.386;2023-03-01T12:47:30;95653.22;;;8.89;78.57
27210;BME280;14721;42.668;23.386;2023-03-01T12:52:57;95640.84;;;8.46;81.39
27210;BME280;14721;42.668;23.386;2023-03-01T12:55:33;95638.75;;;8.51;81.73
27210;BME280;14721;42.668;23.386;2023-03-01T12:58:22;95646.00;;;8.63;81.69
27210;BME280;14721;42.668;23.386;2023-03-01T13:01:09;95648.38;;;8.67;81.44
27210;BME280;14721;42.668;23.386;2023-03-01T13:06:25;95640.75;;;8.75;81.39
27210;BME280;14721;42.668;23.386;2023-03-01T13:11:29;95638.66;;;8.66;81.18
27210;BME280;14721;42.668;23.386;2023-03-01T13:16:45;95650.16;;;8.53;82.24
27210;BME280;14721;42.668;23.386;2023-03-01T13:19:19;95654.13;;;8.32;83.47
27210;BME280;14721;42.668;23.386;2023-03-01T13:21:46;95653.38;;;8.14;85.00
27210;BME280;14721;42.668;23.386;2023-03-01T13:29:50;95651.28;;;8.05;86.54
27210;BME280;14721;42.668;23.386;2023-03-01T13:32:26;95650.75;;;7.99;87.03
27210;BME280;14721;42.668;23.386;2023-03-01T13:37:44;95650.41;;;8.05;87.56
27210;BME280;14721;42.668;23.386;2023-03-01T13:42:51;95638.50;;;7.96;88.11
27210;BME280;14721;42.668;23.386;2023-03-01T13:45:39;95642.06;;;8.11;87.92
27210;BME280;14721;42.668;23.386;2023-03-01T13:48:18;95630.25;;;8.01;88.09
27210;BME280;14721;42.668;23.386;2023-03-01T13:50:50;95633.63;;;8.18;88.16
27210;BME280;14721;42.668;23.386;2023-03-01T13:53:23;95635.53;;;8.16;88.50
27210;BME280;14721;42.668;23.386;2023-03-01T13:58:58;95634.47;;;8.19;88.26
27210;BME280;14721;42.668;23.386;2023-03-01T14:01:27;95635.28;;;8.35;87.50
27210;BME280;14721;42.668;23.386;2023-03-01T14:03:53;95642.16;;;8.39;86.10
27210;BME280;14721;42.668;23.386;2023-03-01T14:06:26;95642.94;;;8.55;85.26
27210;BME280;14721;42.668;23.386;2023-03-01T14:09:15;95627.72;;;8.43;84.52
27210;BME280;14721;42.668;23.386;2023-03-01T14:19:46;95632.44;;;8.24;87.00
27210;BME280;14721;42.668;23.386;2023-03-01T14:22:30;95631.72;;;8.20;87.17
27210;BME280;14721;42.668;23.386;2023-03-01T14:27:41;95631.88;;;8.03;88.64
27210;BME280;14721;42.668;23.386;2023-03-01T14:30:21;95638.59;;;7.95;89.47
27210;BME280;14721;42.668;23.386;2023-03-01T14:32:59;95637.81;;;7.93;89.91
27210;BME280;14721;42.668;23.386;2023-03-01T14:35:35;95638.00;;;7.90;89.67
27210;BME280;14721;42.668;23.386;2023-03-01T14:38:02;95629.47;;;7.85;89.34
27210;BME280;14721;42.668;23.386;2023-03-01T14:40:34;95632.22;;;7.83;89.41
27210;BME280;14721;42.668;23.386;2023-03-01T14:43:02;95625.78;;;7.71;89.92
27210;BME280;14721;42.668;23.386;2023-03-01T14:45:33;95636.63;;;7.68;90.39
27210;BME280;14721;42.668;23.386;2023-03-01T14:48:00;95626.09;;;7.51;91.07
27210;BME280;14721;42.668;23.386;2023-03-01T14:50:32;95623.78;;;7.61;91.50
27210;BME280;14721;42.668;23.386;2023-03-01T14:53:01;95632.50;;;7.63;91.73
27210;BME280;14721;42.668;23.386;2023-03-01T14:55:40;95628.22;;;7.60;91.41
27210;BME280;14721;42.668;23.386;2023-03-01T14:58:12;95629.31;;;7.72;91.71
27210;BME280;14721;42.668;23.386;2023-03-01T15:00:38;95627.50;;;7.72;90.97
27210;BME280;14721;42.668;23.386;2023-03-01T15:03:24;95621.81;;;7.49;91.25
27210;BME280;14721;42.668;23.386;2023-03-01T15:05:51;95624.47;;;7.49;91.30
27210;BME280;14721;42.668;23.386;2023-03-01T15:08:21;95624.84;;;7.43;91.77
27210;BME280;14721;42.668;23.386;2023-03-01T15:11:29;95628.50;;;7.40;92.08
27210;BME280;14721;42.668;23.386;2023-03-01T15:13:56;95614.81;;;7.32;92.75